createdAt,value
2018-11-23T00:01:46.857Z,9.03
2018-11-23T00:04:17.688Z,9.00
2018-11-23T00:06:48.563Z,7.77
2018-11-23T00:09:19.437Z,10.07
2018-11-23T00:11:50.113Z,9.27
2018-11-23T00:14:20.832Z,8.63
2018-11-23T00:16:51.535Z,8.97
2018-11-23T00:19:22.365Z,8.83
2018-11-23T00:21:53.043Z,8.30
2018-11-23T00:24:23.789Z,7.07
2018-11-23T00:26:54.567Z,6.87
2018-11-23T00:29:25.293Z,6.60
2018-11-23T00:31:56.218Z,7.83
2018-11-23T00:34:26.795Z,7.40
2018-11-23T00:36:57.560Z,7.07
2018-11-23T00:39:28.178Z,7.30
2018-11-23T00:41:58.805Z,7.27
2018-11-23T00:44:29.303Z,7.07
2018-11-23T00:47:00.155Z,7.47
2018-11-23T00:49:30.880Z,6.20
2018-11-23T00:52:01.421Z,6.83
2018-11-23T00:54:32.068Z,6.20
2018-11-23T00:57:02.679Z,6.20
2018-11-23T00:59:33.643Z,8.80
2018-11-23T01:02:06.173Z,7.03
2018-11-23T01:04:37.469Z,5.67
2018-11-23T01:07:08.179Z,6.33
2018-11-23T01:09:38.900Z,10.57
2018-11-23T01:12:09.625Z,6.87
2018-11-23T01:14:40.062Z,7.20
2018-11-23T01:17:10.689Z,6.97
2018-11-23T01:19:41.534Z,5.90
2018-11-23T01:22:12.436Z,8.57
2018-11-23T01:24:42.848Z,6.20
2018-11-23T01:27:13.444Z,8.80
2018-11-23T01:29:44.051Z,9.23
2018-11-23T01:32:14.576Z,10.00
2018-11-23T01:34:45.285Z,11.43
2018-11-23T01:37:15.866Z,11.13
2018-11-23T01:39:46.885Z,8.33
2018-11-23T01:42:17.941Z,8.00
2018-11-23T01:44:49.894Z,8.07
2018-11-23T01:47:22.278Z,8.67
2018-11-23T01:49:52.748Z,7.73
2018-11-23T01:52:23.262Z,8.17
2018-11-23T01:54:53.804Z,7.67
2018-11-23T01:57:24.481Z,7.03
2018-11-23T01:59:55.256Z,7.70
2018-11-23T02:02:26.262Z,9.33
2018-11-23T02:04:57.037Z,9.17
2018-11-23T02:07:27.590Z,7.27
2018-11-23T02:09:58.394Z,8.17
2018-11-23T02:12:29.124Z,7.03
2018-11-23T02:14:59.687Z,8.23
2018-11-23T02:17:30.407Z,7.07
2018-11-23T02:20:00.997Z,7.50
2018-11-23T02:22:31.653Z,6.73
2018-11-23T02:25:02.263Z,7.07
2018-11-23T02:27:33.127Z,7.77
2018-11-23T02:30:03.785Z,7.80
2018-11-23T02:32:34.470Z,6.97
2018-11-23T02:35:05.127Z,7.77
2018-11-23T02:37:36.119Z,7.43
2018-11-23T02:40:07.630Z,6.90
2018-11-23T02:42:38.773Z,6.67
2018-11-23T02:45:11.832Z,6.77
2018-11-23T02:47:43.308Z,6.23
2018-11-23T02:50:14.295Z,8.87
2018-11-23T02:52:45.631Z,5.67
2018-11-23T02:55:17.532Z,7.23
2018-11-23T02:57:48.204Z,7.63
2018-11-23T03:00:20.212Z,8.90
2018-11-23T03:02:50.777Z,13.53
2018-11-23T03:05:23.612Z,7.50
2018-11-23T03:07:54.351Z,9.40
2018-11-23T03:10:24.750Z,9.87
2018-11-23T03:12:55.324Z,13.00
2018-11-23T03:15:25.930Z,9.70
2018-11-23T03:17:56.953Z,10.20
2018-11-23T03:20:27.605Z,9.20
2018-11-23T03:22:58.397Z,12.37
2018-11-23T03:25:28.797Z,10.13
2018-11-23T03:27:59.928Z,14.10
2018-11-23T03:30:30.444Z,11.13
2018-11-23T03:33:01.017Z,12.63
2018-11-23T03:35:31.680Z,16.43
2018-11-23T03:38:02.878Z,14.30
2018-11-23T03:40:33.916Z,20.60
2018-11-23T03:43:04.877Z,17.03
2018-11-23T03:45:35.502Z,14.83
2018-11-23T03:48:06.635Z,25.60
2018-11-23T03:50:37.148Z,15.17
2018-11-23T03:53:07.964Z,17.23
2018-11-23T03:55:38.991Z,17.93
2018-11-23T03:58:09.647Z,18.80
2018-11-23T04:00:40.652Z,14.87
2018-11-23T04:03:11.402Z,12.90
2018-11-23T04:05:42.113Z,19.00
2018-11-23T04:08:12.636Z,14.40
2018-11-23T04:10:43.524Z,12.87
2018-11-23T04:13:14.274Z,14.90
2018-11-23T04:15:45.170Z,15.73
2018-11-23T04:18:15.749Z,18.23
2018-11-23T04:20:58.011Z,21.67
2018-11-23T04:23:29.500Z,16.33
2018-11-23T04:26:00.291Z,15.03
2018-11-23T04:28:31.140Z,21.80
2018-11-23T04:31:02.165Z,16.37
2018-11-23T04:33:33.149Z,14.57
2018-11-23T04:36:03.899Z,14.93
2018-11-23T04:38:34.837Z,16.30
2018-11-23T04:41:05.880Z,17.77
2018-11-23T04:43:36.962Z,17.93
2018-11-23T04:46:08.249Z,15.57
2018-11-23T04:48:38.999Z,18.77
2018-11-23T04:51:09.845Z,13.70
2018-11-23T04:53:41.029Z,14.03
2018-11-23T04:56:12.197Z,14.00
2018-11-23T04:58:42.925Z,12.90
2018-11-23T05:01:13.910Z,19.03
2018-11-23T05:03:44.726Z,16.67
2018-11-23T05:06:15.552Z,16.57
2018-11-23T05:08:46.369Z,16.37
2018-11-23T05:11:17.473Z,21.97
2018-11-23T05:13:48.564Z,21.37
2018-11-23T05:16:19.314Z,19.03
2018-11-23T05:18:50.434Z,14.07
2018-11-23T05:21:21.392Z,19.83
2018-11-23T05:23:52.453Z,27.23
2018-11-23T05:26:23.327Z,28.57
2018-11-23T05:28:54.067Z,28.93
2018-11-23T05:31:25.169Z,25.87
2018-11-23T05:33:56.185Z,29.67
2018-11-23T05:36:27.442Z,22.47
2018-11-23T05:38:58.327Z,22.97
2018-11-23T05:41:29.399Z,20.97
2018-11-23T05:44:00.162Z,18.13
2018-11-23T05:46:30.961Z,18.23
2018-11-23T05:49:02.106Z,28.73
2018-11-23T05:51:33.217Z,34.20
2018-11-23T05:54:04.795Z,33.20
2018-11-23T05:56:36.118Z,28.07
2018-11-23T05:59:07.322Z,26.57
2018-11-23T06:01:38.190Z,24.77
2018-11-23T06:04:09.128Z,23.47
2018-11-23T06:06:42.433Z,23.80
2018-11-23T06:09:10.903Z,27.17
2018-11-23T06:11:42.112Z,26.43
2018-11-23T06:14:13.206Z,29.27
2018-11-23T06:16:44.296Z,21.27
2018-11-23T06:19:15.025Z,21.03
2018-11-23T06:21:45.807Z,32.00
2018-11-23T06:24:16.590Z,19.70
2018-11-23T06:26:47.225Z,24.23
2018-11-23T06:29:18.256Z,21.03
2018-11-23T06:31:48.756Z,25.20
2018-11-23T06:34:19.419Z,30.03
2018-11-23T06:36:50.601Z,21.33
2018-11-23T06:39:21.174Z,29.60
2018-11-23T06:41:51.781Z,27.67
2018-11-23T06:44:27.336Z,23.57
2018-11-23T06:46:58.045Z,26.17
2018-11-23T06:49:28.752Z,27.97
2018-11-23T06:51:59.408Z,23.77
2018-11-23T06:54:30.243Z,21.37
2018-11-23T06:57:00.929Z,26.77
2018-11-23T06:59:31.689Z,29.03
2018-11-23T07:02:02.664Z,29.07
2018-11-23T07:04:33.411Z,22.23
2018-11-23T07:07:04.153Z,23.77
2018-11-23T07:09:34.823Z,28.10
2018-11-23T07:12:05.560Z,27.20
2018-11-23T07:14:36.296Z,23.30
2018-11-23T07:17:07.416Z,23.53
2018-11-23T07:19:38.029Z,27.27
2018-11-23T07:22:08.940Z,22.40
2018-11-23T07:24:39.664Z,22.43
2018-11-23T07:27:10.351Z,23.60
2018-11-23T07:29:41.214Z,28.37
2018-11-23T07:32:11.979Z,23.03
2018-11-23T07:34:42.909Z,22.73
2018-11-23T07:37:13.756Z,22.10
2018-11-23T07:39:54.931Z,19.60
2018-11-23T07:42:27.233Z,22.97
2018-11-23T07:44:58.368Z,25.07
2018-11-23T07:47:29.244Z,18.83
2018-11-23T07:49:59.976Z,24.23
2018-11-23T07:52:30.599Z,24.70
2018-11-23T07:55:01.326Z,24.20
2018-11-23T07:57:31.992Z,24.00
2018-11-23T08:00:03.101Z,17.77
2018-11-23T08:02:33.840Z,19.00
2018-11-23T08:05:04.456Z,20.37
2018-11-23T08:07:35.445Z,20.83
2018-11-23T08:10:07.258Z,18.83
2018-11-23T08:12:38.327Z,22.23
2018-11-23T08:15:15.032Z,22.17
2018-11-23T08:17:45.657Z,18.43
2018-11-23T08:20:18.809Z,22.27
2018-11-23T08:22:49.728Z,28.57
2018-11-23T08:25:21.764Z,18.60
2018-11-23T08:27:53.978Z,26.73
2018-11-23T08:30:26.399Z,26.27
2018-11-23T08:32:57.846Z,15.93
2018-11-23T08:35:28.879Z,13.17
2018-11-23T08:37:59.629Z,19.37
2018-11-23T08:40:30.531Z,16.30
2018-11-23T08:43:01.366Z,23.00
2018-11-23T08:45:32.026Z,20.37
2018-11-23T08:48:02.622Z,27.87
2018-11-23T08:50:33.466Z,32.50
2018-11-23T08:53:04.204Z,18.57
2018-11-23T08:55:35.133Z,14.80
2018-11-23T08:58:05.931Z,10.20
2018-11-23T09:00:36.784Z,11.00
2018-11-23T09:03:07.905Z,11.40
2018-11-23T09:05:38.489Z,9.50
2018-11-23T09:08:09.083Z,10.70
2018-11-23T09:10:39.915Z,13.50
2018-11-23T09:13:10.456Z,11.03
2018-11-23T09:15:41.246Z,10.73
2018-11-23T09:18:12.009Z,8.87
2018-11-23T09:20:42.816Z,9.40
2018-11-23T09:23:13.307Z,11.57
2018-11-23T09:25:44.156Z,15.70
2018-11-23T09:28:15.084Z,12.73
2018-11-23T09:30:45.664Z,9.33
2018-11-23T09:33:16.269Z,12.23
2018-11-23T09:35:47.148Z,12.43
2018-11-23T09:38:17.927Z,16.10
2018-11-23T09:40:49.027Z,16.27
2018-11-23T09:43:19.865Z,12.03
2018-11-23T09:45:50.430Z,14.27
2018-11-23T09:48:21.378Z,11.13
2018-11-23T09:50:52.341Z,15.30
2018-11-23T09:53:22.963Z,12.87
2018-11-23T09:55:53.927Z,12.20
2018-11-23T09:58:24.761Z,9.77
2018-11-23T10:00:55.343Z,9.47
2018-11-23T10:03:26.224Z,13.17
2018-11-23T10:05:57.069Z,10.83
2018-11-23T10:08:27.742Z,11.10
2018-11-23T10:10:58.664Z,11.60
2018-11-23T10:13:29.548Z,10.30
2018-11-23T10:16:02.213Z,11.20
2018-11-23T10:18:33.028Z,9.03
2018-11-23T10:21:04.146Z,8.40
2018-11-23T10:23:34.861Z,9.10
2018-11-23T10:26:05.619Z,10.83
2018-11-23T10:28:36.371Z,8.90
2018-11-23T10:31:07.513Z,17.57
2018-11-23T10:33:38.394Z,7.17
2018-11-23T10:36:09.042Z,10.53
2018-11-23T10:38:39.977Z,13.50
2018-11-23T10:41:10.697Z,17.93
2018-11-23T10:43:41.763Z,8.30
2018-11-23T10:46:12.274Z,10.13
2018-11-23T10:48:43.013Z,14.50
2018-11-23T10:51:13.946Z,14.17
2018-11-23T10:56:15.684Z,10.33
2018-11-23T10:58:46.896Z,8.83
2018-11-23T11:01:22.531Z,13.17
2018-11-23T11:03:58.384Z,9.27
2018-11-23T11:06:33.793Z,11.87
2018-11-23T11:09:04.862Z,15.97
2018-11-23T11:11:39.319Z,12.83
2018-11-23T11:14:10.701Z,18.90
2018-11-23T11:16:41.844Z,10.40
2018-11-23T11:19:12.681Z,14.70
2018-11-23T11:21:43.572Z,14.93
2018-11-23T11:24:14.519Z,11.70
2018-11-23T11:26:45.427Z,12.07
2018-11-23T11:29:23.105Z,28.13
2018-11-23T11:31:54.900Z,10.80
2018-11-23T11:34:25.762Z,18.60
2018-11-23T11:36:56.495Z,15.37
2018-11-23T11:39:27.109Z,10.33
2018-11-23T11:41:57.926Z,8.63
2018-11-23T11:44:28.826Z,11.87
2018-11-23T11:46:59.484Z,22.83
2018-11-23T11:49:30.281Z,8.63
2018-11-23T11:52:00.942Z,11.10
2018-11-23T11:54:32.230Z,15.97
2018-11-23T11:57:03.215Z,17.50
2018-11-23T11:59:34.191Z,10.53
2018-11-23T12:02:10.110Z,9.33
2018-11-23T12:04:35.924Z,15.80
2018-11-23T12:07:06.808Z,15.73
2018-11-23T12:09:37.663Z,43.07
2018-11-23T12:12:08.711Z,24.07
2018-11-23T12:14:39.674Z,11.83
2018-11-23T12:17:10.581Z,18.27
2018-11-23T12:19:41.637Z,14.27
2018-11-23T12:22:12.555Z,17.50
2018-11-23T12:24:43.233Z,12.67
2018-11-23T12:27:14.277Z,15.70
2018-11-23T12:29:45.040Z,12.93
2018-11-23T12:32:16.236Z,15.07
2018-11-23T12:34:46.780Z,11.83
2018-11-23T12:37:17.559Z,14.00
2018-11-23T12:39:48.319Z,17.10
2018-11-23T12:42:19.135Z,13.07
2018-11-23T12:44:49.911Z,16.27
2018-11-23T12:47:20.785Z,29.33
2018-11-23T12:49:51.415Z,47.57
2018-11-23T12:52:22.431Z,22.00
2018-11-23T12:54:53.035Z,22.87
2018-11-23T12:57:23.772Z,18.33
2018-11-23T12:59:54.492Z,28.80
2018-11-23T13:02:25.179Z,16.10
2018-11-23T13:04:55.689Z,14.77
2018-11-23T13:07:26.575Z,18.43
2018-11-23T13:09:57.529Z,24.47
2018-11-23T13:12:28.534Z,22.17
2018-11-23T13:15:00.568Z,24.10
2018-11-23T13:17:31.334Z,13.07
2018-11-23T13:20:01.964Z,16.57
2018-11-23T13:22:33.127Z,14.77
2018-11-23T13:25:04.060Z,22.17
2018-11-23T13:27:35.008Z,20.63
2018-11-23T13:30:07.781Z,28.60
2018-11-23T13:32:38.604Z,19.90
2018-11-23T13:35:11.496Z,11.87
2018-11-23T13:37:42.594Z,17.93
2018-11-23T13:40:15.742Z,19.23
2018-11-23T13:42:46.720Z,20.53
2018-11-23T13:45:19.595Z,14.67
2018-11-23T13:47:51.148Z,14.17
2018-11-23T13:50:23.070Z,16.13
2018-11-23T13:52:55.625Z,16.83
2018-11-23T13:55:26.367Z,33.10
2018-11-23T13:57:57.559Z,15.30
2018-11-23T14:00:29.428Z,15.83
2018-11-23T14:03:00.378Z,22.60
2018-11-23T14:05:32.633Z,20.33
2018-11-23T14:08:04.295Z,31.37
2018-11-23T14:10:35.191Z,22.07
2018-11-23T14:13:11.377Z,33.07
2018-11-23T14:15:36.596Z,46.30
2018-11-23T14:18:07.477Z,37.03
2018-11-23T14:20:38.557Z,19.93
2018-11-23T14:23:09.616Z,18.93
2018-11-23T14:25:40.627Z,16.40
2018-11-23T14:28:12.026Z,19.80
2018-11-23T14:30:42.779Z,29.13
2018-11-23T14:33:15.585Z,23.90
2018-11-23T14:35:48.701Z,15.97
2018-11-23T14:38:19.497Z,22.93
2018-11-23T14:40:50.496Z,22.57
2018-11-23T14:43:21.122Z,20.27
2018-11-23T14:45:51.914Z,15.27
2018-11-23T14:48:22.642Z,17.87
2018-11-23T14:50:53.912Z,23.43
2018-11-23T14:53:24.754Z,26.10
2018-11-23T14:55:55.537Z,30.47
2018-11-23T14:58:26.390Z,28.33
2018-11-23T15:00:57.177Z,17.90
2018-11-23T15:03:28.254Z,33.20
2018-11-23T15:05:58.801Z,16.27
2018-11-23T15:08:29.922Z,18.63
2018-11-23T15:11:00.787Z,27.20
2018-11-23T15:13:31.886Z,38.47
2018-11-23T15:16:03.022Z,68.40
2018-11-23T15:18:33.813Z,59.93
2018-11-23T15:21:08.841Z,46.47
2018-11-23T15:23:40.401Z,66.83
2018-11-23T15:26:11.237Z,32.07
2018-11-23T15:28:42.032Z,21.30
2018-11-23T15:31:12.648Z,31.03
2018-11-23T15:33:43.311Z,51.53
2018-11-23T15:36:14.231Z,39.20
2018-11-23T15:38:46.309Z,47.97
2018-11-23T15:41:17.283Z,21.37
2018-11-23T15:43:48.877Z,15.50
2018-11-23T15:46:19.752Z,14.80
2018-11-23T15:48:50.262Z,17.33
2018-11-23T15:51:21.275Z,16.10
2018-11-23T15:53:52.244Z,18.53
2018-11-23T15:56:23.557Z,17.77
2018-11-23T15:58:54.431Z,18.93
2018-11-23T16:01:25.579Z,23.30
2018-11-23T16:03:56.430Z,20.27
2018-11-23T16:06:27.376Z,19.50
2018-11-23T16:08:58.194Z,18.57
2018-11-23T16:11:28.969Z,22.90
2018-11-23T16:13:59.724Z,22.10
2018-11-23T16:16:30.349Z,39.37
2018-11-23T16:19:01.248Z,17.27
2018-11-23T16:21:32.051Z,23.30
2018-11-23T16:24:05.161Z,21.43
2018-11-23T16:26:36.082Z,20.20
2018-11-23T16:29:07.298Z,22.73
2018-11-23T16:31:38.996Z,22.00
2018-11-23T16:34:10.002Z,22.03
2018-11-23T16:36:40.766Z,28.23
2018-11-23T16:39:13.109Z,21.17
2018-11-23T16:41:44.026Z,57.23
2018-11-23T16:44:14.631Z,73.37
2018-11-23T16:46:45.244Z,94.37
2018-11-23T16:49:15.950Z,105.13
2018-11-23T16:51:46.941Z,124.23
2018-11-23T16:54:17.585Z,90.33
2018-11-23T16:56:48.459Z,88.07
2018-11-23T16:59:19.264Z,76.30
2018-11-23T17:01:50.495Z,30.57
2018-11-23T17:04:21.464Z,16.13
2018-11-23T17:06:52.453Z,15.83
2018-11-23T17:09:23.430Z,17.27
2018-11-23T17:11:54.110Z,29.67
2018-11-23T17:14:24.950Z,25.07
2018-11-23T17:16:55.874Z,13.57
2018-11-23T17:19:26.725Z,26.33
2018-11-23T17:21:57.396Z,14.80
2018-11-23T17:24:28.250Z,12.40
2018-11-23T17:26:59.318Z,15.63
2018-11-23T17:29:29.953Z,17.90
2018-11-23T17:32:01.196Z,12.03
2018-11-23T17:34:35.193Z,17.37
2018-11-23T17:37:09.733Z,15.27
2018-11-23T17:39:43.671Z,15.80
2018-11-23T17:42:16.343Z,14.90
2018-11-23T17:44:49.413Z,16.77
2018-11-23T17:47:21.199Z,20.30
2018-11-23T17:49:54.769Z,25.10
2018-11-23T17:52:26.547Z,28.33
2018-11-23T17:54:59.374Z,34.67
2018-11-23T17:57:32.968Z,19.77
2018-11-23T18:00:05.853Z,33.73
2018-11-23T18:02:37.035Z,30.87
2018-11-23T18:05:11.485Z,27.33
2018-11-23T18:07:44.693Z,17.47
2018-11-23T18:10:18.611Z,20.40
2018-11-23T18:12:49.825Z,21.07
2018-11-23T18:15:23.040Z,17.83
2018-11-23T18:17:55.020Z,15.00
2018-11-23T18:20:26.636Z,16.03
2018-11-23T18:22:58.067Z,13.20
2018-11-23T18:25:30.320Z,15.47
2018-11-23T18:28:01.067Z,15.73
2018-11-23T18:30:33.262Z,18.30
2018-11-23T18:33:07.938Z,17.97
2018-11-23T18:35:38.861Z,18.93
2018-11-23T18:38:13.935Z,21.37
2018-11-23T18:40:47.591Z,20.40
2018-11-23T18:43:19.508Z,27.73
2018-11-23T18:45:52.493Z,15.00
2018-11-23T18:48:23.307Z,12.50
2018-11-23T18:50:54.134Z,15.93
2018-11-23T18:53:24.731Z,12.77
2018-11-23T18:55:55.579Z,14.80
2018-11-23T18:58:26.672Z,11.23
2018-11-23T19:00:57.538Z,9.77
2018-11-23T19:03:28.336Z,11.43
2018-11-23T19:05:59.127Z,11.43
2018-11-23T19:08:29.679Z,13.57
2018-11-23T19:11:00.713Z,11.57
2018-11-23T19:13:31.428Z,11.23
2018-11-23T19:16:02.468Z,16.10
2018-11-23T19:18:33.454Z,10.40
2018-11-23T19:21:04.403Z,13.43
2018-11-23T19:23:35.224Z,12.07
2018-11-23T19:26:05.946Z,14.83
2018-11-23T19:28:36.914Z,19.40
2018-11-23T19:31:07.652Z,21.13
2018-11-23T19:33:38.471Z,25.23
2018-11-23T19:36:09.042Z,28.55
2018-11-23T19:38:39.687Z,45.57
2018-11-23T19:41:10.545Z,58.43
2018-11-23T19:43:41.726Z,74.73
2018-11-23T19:46:12.541Z,63.93
2018-11-23T19:48:43.412Z,55.87
2018-11-23T19:51:14.396Z,73.40
2018-11-23T19:53:44.941Z,58.30
2018-11-23T19:56:15.725Z,61.57
2018-11-23T19:58:48.350Z,53.20
2018-11-23T20:01:23.188Z,45.63
2018-11-23T20:03:57.297Z,39.87
2018-11-23T20:06:29.149Z,34.40
2018-11-23T20:09:01.674Z,39.20
2018-11-23T20:11:35.011Z,39.37
2018-11-23T20:14:05.890Z,43.07
2018-11-23T20:16:38.608Z,35.87
2018-11-23T20:19:09.214Z,28.67
2018-11-23T20:21:40.503Z,31.00
2018-11-23T20:24:11.222Z,32.20
2018-11-23T20:26:42.441Z,30.17
2018-11-23T20:29:13.425Z,30.03
2018-11-23T20:31:46.317Z,26.17
2018-11-23T20:34:17.108Z,31.27
2018-11-23T20:36:48.044Z,31.00
2018-11-23T20:39:20.033Z,24.10
2018-11-23T20:41:51.000Z,23.10
2018-11-23T20:44:21.690Z,18.60
2018-11-23T20:46:52.852Z,16.73
2018-11-23T20:49:24.424Z,14.23
2018-11-23T20:51:55.282Z,12.87
2018-11-23T20:54:25.896Z,12.77
2018-11-23T20:56:57.018Z,11.27
2018-11-23T20:59:27.585Z,13.50
2018-11-23T21:01:58.683Z,12.20
2018-11-23T21:04:30.366Z,15.30
2018-11-23T21:07:01.506Z,14.67
2018-11-23T21:09:32.246Z,15.07
2018-11-23T21:12:03.256Z,11.87
2018-11-23T21:14:35.377Z,11.97
2018-11-23T21:17:06.971Z,13.23
2018-11-23T21:19:38.432Z,14.83
2018-11-23T21:22:09.261Z,12.40
2018-11-23T21:24:40.522Z,12.77
2018-11-23T21:27:11.703Z,11.47
2018-11-23T21:29:42.449Z,15.90
2018-11-23T21:32:13.750Z,12.00
2018-11-23T21:34:44.430Z,13.23
2018-11-23T21:37:15.050Z,10.83
2018-11-23T21:39:45.718Z,14.07
2018-11-23T21:42:16.604Z,12.80
2018-11-23T21:44:47.443Z,14.23
2018-11-23T21:47:18.860Z,8.83
2018-11-23T21:49:49.364Z,9.03
2018-11-23T21:52:20.110Z,8.87
2018-11-23T21:54:50.792Z,8.40
2018-11-23T21:57:21.457Z,9.77
2018-11-23T21:59:52.123Z,10.13
2018-11-23T22:02:22.968Z,9.00
2018-11-23T22:04:54.521Z,9.83
2018-11-23T22:07:25.193Z,9.30
2018-11-23T22:09:55.826Z,9.67
2018-11-23T22:12:26.553Z,10.80
2018-11-23T22:14:57.616Z,10.17
2018-11-23T22:17:28.188Z,12.43
2018-11-23T22:19:59.210Z,9.17
2018-11-23T22:22:30.112Z,10.33
2018-11-23T22:25:00.641Z,10.20
2018-11-23T22:27:31.212Z,9.70
2018-11-23T22:30:02.160Z,11.53
2018-11-23T22:32:33.097Z,10.27
2018-11-23T22:35:04.183Z,11.07
2018-11-23T22:37:34.858Z,12.47
2018-11-23T22:40:06.611Z,16.43
2018-11-23T22:42:37.743Z,16.13
2018-11-23T22:45:10.615Z,19.87
2018-11-23T22:47:41.497Z,23.20
2018-11-23T22:50:16.661Z,21.10
2018-11-23T22:52:47.902Z,25.27
2018-11-23T22:55:19.004Z,43.27
2018-11-23T22:57:49.822Z,41.87
2018-11-23T23:00:30.858Z,39.50
2018-11-23T23:03:01.781Z,20.83
2018-11-23T23:05:32.966Z,20.80
2018-11-23T23:08:03.846Z,19.47
2018-11-23T23:10:34.622Z,22.70
2018-11-23T23:13:05.628Z,19.73
2018-11-23T23:15:36.345Z,15.37
2018-11-23T23:18:07.305Z,11.80
2018-11-23T23:20:38.226Z,25.13
2018-11-23T23:23:09.084Z,28.77
2018-11-23T23:25:40.131Z,17.77
2018-11-23T23:28:10.880Z,18.43
2018-11-23T23:30:41.519Z,25.67
2018-11-23T23:33:12.196Z,41.40
2018-11-23T23:35:43.065Z,31.87
2018-11-23T23:38:13.942Z,20.23
2018-11-23T23:40:44.673Z,55.50
2018-11-23T23:43:15.614Z,35.33
2018-11-23T23:45:46.441Z,23.83
2018-11-23T23:48:17.175Z,64.50
2018-11-23T23:50:47.866Z,26.17
2018-11-23T23:53:18.630Z,24.47
2018-11-23T23:55:49.460Z,32.50
2018-11-23T23:58:21.027Z,82.50
